LGF weather

Laguna Army Airfield
Yuma Proving Ground(Yuma), Arizona, United States

Public forecast

Using degrees Fahrenheit for public forecast. Weather courtesy of forecast.io.

Closest aviation weather report (METAR) to Laguna Army Airfield

Closest report is Yuma MCAS/Yuma International Airport, 16.1 nm (29.9 km) SW. Retrieved 2020/02/18 17:57 UTC (31 minutes ago):

KNYL 181757Z 03008KT 7SM FEW150 21/M01 A2999 RMK AO2 SLP153 T02061006 10206 20111 51014

Closest aviation forecast (TAF) to Laguna Army Airfield

Forecast is more than 12 hours old.

Closest forecast is Yuma MCAS/Yuma International Airport, 16.1 nm (29.9 km) SW. Retrieved 2014/04/27 15:15 UTC (6 years ago):

TAF TAF COR KNYL 271500Z 2715/2815 VRB06KT 9999 FEW250 QNH2989INS BECMG 2716/2718 26007KT QNH2978INS BECMG 2806/2808 VRB05KT QNH2981INS AUTOMATED SENSOR METWATCH 2715 TIL 2815 TX22/2723Z TN10/2813Z COR 1545